Terminal Aerodrome Forecast
Issued by NWS

Home | Current Version | Previous Version | Text Only | Print | Product List | Glossary On
Versions: 1 2 3 4 5 6 7 8 9 10 11 12 13 14 15
000
FTUS42 KMLB 201100
TAFISM
TAF
KISM 201125Z 2012/2112 06005KT P6SM -RA SCT007 OVC025
      TEMPO 2012/2013 3SM RA BR OVC008
     FM201500 32004KT P6SM VCSH SCT020 BKN040 OVC100
     FM201800 28006KT P6SM VCSH SCT025 BKN040
      TEMPO 2018/2021 3SM SHRA BKN025
     FM210000 26004KT P6SM VCSH SCT025 BKN080=

USA.gov is the U.S. government's official web portal to all federal, state and local government web resources and services.